Deqen, China
Current Conditions -  °F | °C
As of 6:00 AM on Tuesday 21 Oct 2014 (Local Time) from ZPPP Reporting Station
Scattered Clouds Scattered Clouds  
Wind Chill:   Ceiling: Unl
Heat Index:   Visibility: 4mi
Dew Point:   Wind: 2mph
Humidity: 100%   Direction: 60°ENE
Pressure: 30.33"   Gusts: NA
Location:  28.5°N, 98.9°E
Report Text: ZPPP 202200Z 06001MPS 6000 SCT023 SCT033 09/09 Q1027 NOSIG
Loading
Personal Weather Stations






























Interactive Weather Map
Tropical Storm Tracking
New forecast layout! Learn more

10-Day Weather Forecast

Advertisements
Track Severe Weather on mobile